Terminal Aerodrome Forecast
Issued by NWS Cleveland, OH

Home | Current Version | Previous Version | Text Only | Print | Product List | Glossary On
Versions: 1 2 3 4 5 6 7 8 9 10 11 12 13 14 15 16 17 18 19 20 21 22 23 24 25
000
FTUS41 KCLE 222300 RRA
TAFTOL
TAF
KTOL 222341Z 2300/2324 07004KT P6SM BKN050
     FM230300 00000KT P6SM SCT050 BKN200
     FM230800 00000KT 3SM BR SCT015
     FM231000 00000KT 1 1/2SM BR BKN015
     FM231400 06005KT P6SM BKN018
     FM231700 06005KT P6SM BKN035=

USA.gov is the U.S. government's official web portal to all federal, state and local government web resources and services.